Latest Weather Observations for Cooma Airport

IDN60901

Issued at 9:12 pm EDT Sunday 24 January 2021 (issued every 10 minutes, with the page automatically refreshed every 10 minutes)

About weather observations | Map of Canberra area stations | Latest observations for Canberra area | Other Formats
Station Details ID: 070217 Name: COOMA AIRPORT AWS Lat: -36.29 Lon: 148.97 Height: 930.0 m
Data from the previous 72 hours. | See also: Recent months at Cooma Airport
Date/Time
EDT
Temp
°C
App
Temp
°C
Dew
Point
°C
Rel
Hum
%
Delta-T
°C
Wind Press
QNH
hPa
Press
MSL
hPa
Rain since
9am
mm
Dir  Spd
km/h
Gust
km/h
Spd
kts
Gust
kts
24/09:00pm 23.6 17.8 9.6 41 8.0 NE 30 37 16 20 1014.5 1010.0 0.0
24/08:30pm 23.9 19.4 10.2 42 7.9 ENE 24 30 13 16 1014.2 1009.8 0.0
24/08:00pm 25.5 19.9 8.9 35 9.4 NE 28 35 15 19 1014.0 1009.6 0.0
24/07:30pm 27.3 21.6 8.2 30 10.8 ENE 28 35 15 19 1013.6 1009.1 0.0
24/07:00pm 29.4 23.7 8.5 27 12.0 ENE 28 35 15 19 1013.0 1008.6 0.0
24/06:30pm 29.9 24.9 9.4 28 11.9 ENE 26 33 14 18 1012.9 1008.5 0.0
24/06:00pm 30.7 27.1 8.4 25 12.8 NNE 17 32 9 17 1012.6 1008.1 0.0
24/05:30pm 33.3 30.2 0.1 12 17.0 SE 6 11 3 6 1012.6 1008.1 0.0
24/05:00pm 32.1 27.7 0.2 13 16.2 W 13 20 7 11 1012.8 1008.4 0.0
24/04:30pm 32.6 27.9 -1.7 11 16.9 SW 13 22 7 12 1013.2 1008.7 0.0
24/04:00pm 33.3 30.5 3.2 15 16.2 ESE 7 13 4 7 1013.2 1008.7 0.0
24/03:30pm 33.5 29.2 1.3 13 16.8 SSW 13 26 7 14 1013.5 1009.0 0.0
24/03:00pm 33.3 28.5 0.1 12 17.0 SW 15 26 8 14 1013.9 1009.5 0.0
24/02:30pm 33.0 27.4 -0.2 12 16.8 W 19 28 10 15 1014.4 1009.9 0.0
24/02:00pm 33.6 27.7 -0.9 11 17.4 SW 20 44 11 24 1014.2 1009.8 0.0
24/01:30pm 32.7 27.0 0.7 13 16.4 WNW 20 32 11 17 1014.7 1010.3 0.0
24/01:00pm 32.3 25.9 -1.9 11 16.8 W 22 33 12 18 1014.9 1010.5 0.0
24/12:30pm 32.1 25.6 0.2 13 16.2 WNW 24 35 13 19 1015.1 1010.7 0.0
24/12:00pm 32.3 26.0 -0.7 12 16.5 WNW 22 37 12 20 1015.2 1010.8 0.0
24/11:43am 31.7 24.1 -2.3 11 16.5 W 28 54 15 29 1015.3 1010.9 0.0
24/11:30am 31.4 24.4 -0.3 13 15.9 W 26 41 14 22 1015.5 1011.0 0.0
24/11:00am 31.4 26.5 1.7 15 15.4 WNW 17 33 9 18 1015.7 1011.3 0.0
24/10:30am 30.2 25.5 3.3 18 14.2 WNW 17 32 9 17 1015.8 1011.4 0.0
24/10:00am 29.2 24.3 4.0 20 13.4 NW 19 28 10 15 1015.9 1011.5 0.0
24/09:30am 26.9 24.2 5.8 26 11.4 NE 9 15 5 8 1016.1 1011.7 0.0
24/09:00am 23.8 20.6 7.0 34 9.1 NE 13 15 7 8 1016.2 1011.8 0.0
24/08:30am 21.1 19.0 8.4 44 7.0 NE 9 11 5 6 1016.2 1011.8 0.0
24/08:00am 17.5 14.9 9.2 58 4.5 NE 13 17 7 9 1016.1 1011.7 0.0
24/07:30am 15.0 13.7 11.2 78 2.1 NNE 9 13 5 7 1016.0 1011.6 0.0
24/07:00am 10.7 8.7 8.8 88 1.0 NNE 9 9 5 5 1015.9 1011.5 0.0
24/06:30am 9.1 8.6 7.7 91 0.7 CALM 0 0 0 0 1015.9 1011.5 0.0
24/06:00am 8.8 7.7 6.9 88 0.9 N 2 6 1 3 1015.5 1011.0 0.0
24/05:30am 9.8 7.8 7.2 84 1.3 N 7 9 4 5 1014.9 1010.5 0.0
24/05:00am 12.6 12.0 12.4 99 0.1 N 7 11 4 6 1014.7 1010.3 0.0
24/04:30am 12.0 10.1 11.8 99 0.1 NNE 13 13 7 7 1014.7 1010.3 0.0
24/04:00am 10.9 9.4 10.7 99 0.1 NNE 9 11 5 6 1014.8 1010.4 0.0
24/03:30am 11.3 9.5 11.0 98 0.2 NNE 11 13 6 7 1015.1 1010.7 0.0
24/03:00am 11.3 9.8 10.5 95 0.4 NE 9 13 5 7 1015.3 1010.9 0.0
24/02:30am 12.4 11.3 11.8 96 0.3 NNE 9 9 5 5 1015.6 1011.2 0.0
24/02:00am 11.7 10.4 10.1 90 0.9 NNE 7 9 4 5 1015.9 1011.5 0.0
24/01:30am 12.4 11.7 10.1 86 1.2 NNE 4 7 2 4 1016.0 1011.6 0.0
24/01:00am 13.4 12.8 11.6 89 1.0 W 6 9 3 5 1016.0 1011.6 0.0
24/12:30am 14.1 13.4 12.0 87 1.2 SSW 7 13 4 7 1016.3 1011.9 0.0
24/12:00am 15.7 16.6 14.1 90 0.9 SSW 2 9 1 5 1016.5 1012.2 0.0
 
Date/Time
EDT
Temp
°C
App
Temp
°C
Dew
Point
°C
Rel
Hum
%
Delta-T
°C
Wind Press
QNH
hPa
Press
MSL
hPa
Rain since
9am
mm
Dir  Spd
km/h
Gust
km/h
Spd
kts
Gust
kts
23/11:30pm 14.9 14.2 11.5 80 1.9 W 6 7 3 4 1016.5 1012.2 0.0
23/11:00pm 17.2 16.8 12.9 76 2.5 N 7 7 4 4 1016.4 1012.0 0.0
23/10:30pm 17.4 16.4 13.3 77 2.4 NNE 11 13 6 7 1016.2 1011.8 0.0
23/10:00pm 18.1 16.3 13.4 74 2.8 NNE 15 17 8 9 1016.0 1011.6 0.0
23/09:30pm 18.9 17.5 13.3 70 3.3 NNE 13 15 7 8 1015.8 1011.4 0.0
23/09:00pm 20.2 19.0 12.9 63 4.3 NNE 11 15 6 8 1015.6 1011.2 0.0
23/08:30pm 23.0 20.4 13.2 54 5.9 E 19 24 10 13 1015.0 1010.6 0.0
23/08:00pm 25.5 24.6 11.3 41 8.4 NNE 7 19 4 10 1014.6 1010.2 0.0
23/07:30pm 29.3 25.5 1.7 17 14.1 WNW 11 17 6 9 1014.1 1009.7 0.0
23/07:00pm 30.4 25.7 0.9 15 15.0 W 15 22 8 12 1013.9 1009.5 0.0
23/06:30pm 31.3 27.1 1.6 15 15.4 WSW 13 22 7 12 1013.6 1009.1 0.0
23/06:00pm 31.2 26.2 1.5 15 15.3 W 17 28 9 15 1013.5 1009.0 0.0
23/05:30pm 31.4 25.7 0.7 14 15.6 WSW 20 33 11 18 1013.5 1009.0 0.0
23/05:00pm 31.7 26.3 1.0 14 15.8 SW 19 28 10 15 1013.5 1009.0 0.0
23/04:30pm 32.2 25.9 1.3 14 16.0 SW 24 37 13 20 1013.7 1009.3 0.0
23/04:00pm 31.8 26.0 0.0 13 16.1 WNW 20 32 11 17 1013.8 1009.4 0.0
23/03:30pm 31.7 26.1 -0.1 13 16.0 W 19 32 10 17 1013.9 1009.5 0.0
23/03:00pm 31.9 25.3 -3.5 10 16.9 W 22 32 12 17 1013.8 1009.4 0.0
23/02:30pm 32.2 25.6 -3.2 10 17.0 W 22 39 12 21 1014.1 1009.7 0.0
23/02:00pm 31.3 25.2 -3.9 10 16.6 W 19 30 10 16 1014.2 1009.8 0.0
23/01:30pm 31.1 24.8 -4.1 10 16.5 WSW 20 33 11 18 1014.4 1009.9 0.0
23/01:00pm 30.9 24.1 -5.6 9 16.7 W 22 35 12 19 1014.5 1010.0 0.0
23/12:30pm 30.4 23.7 -4.6 10 16.2 W 22 35 12 19 1014.8 1010.4 0.0
23/12:00pm 30.5 23.8 -4.5 10 16.2 W 22 37 12 20 1014.9 1010.5 0.0
23/11:30am 29.8 22.6 -5.1 10 15.9 WSW 24 35 13 19 1014.9 1010.5 0.0
23/11:00am 29.2 22.7 -5.5 10 15.7 W 20 35 11 19 1015.0 1010.6 0.0
23/10:30am 27.4 23.7 0.2 17 13.4 NNW 9 19 5 10 1015.1 1010.7 0.0
23/10:00am 25.0 21.7 6.2 30 10.1 NE 13 19 7 10 1015.1 1010.7 0.0
23/09:30am 22.6 19.3 8.0 39 8.0 NE 15 20 8 11 1015.2 1010.8 0.0
23/09:00am 20.2 16.4 9.2 49 6.1 NE 19 24 10 13 1015.3 1010.9 0.0
23/08:30am 18.1 14.5 10.0 59 4.5 NE 19 20 10 11 1015.2 1010.8 0.0
23/08:00am 15.9 12.6 9.6 66 3.4 NE 17 20 9 11 1015.1 1010.7 0.0
23/07:30am 13.2 10.6 9.5 78 2.0 NE 13 17 7 9 1014.9 1010.5 0.0
23/07:00am 9.3 7.3 8.8 97 0.3 NNE 9 11 5 6 1014.8 1010.4 0.0
23/06:30am 7.5 5.1 6.9 96 0.3 NNE 9 9 5 5 1014.4 1009.9 0.0
23/06:00am 7.7 5.3 7.1 96 0.3 N 9 9 5 5 1014.1 1009.7 0.0
23/05:30am 7.1 5.8 6.0 93 0.5 N 2 7 1 4 1014.0 1009.6 0.0
23/05:00am 7.5 5.5 6.4 93 0.5 NNE 6 7 3 4 1013.8 1009.4 0.0
23/04:30am 7.1 6.1 5.6 90 0.7 CALM 0 0 0 0 1013.8 1009.4 0.0
23/04:00am 7.5 6.5 5.6 88 0.9 CALM 0 0 0 0 1013.7 1009.3 0.0
23/03:30am 8.5 7.7 6.3 86 1.1 CALM 0 6 0 3 1013.6 1009.1 0.0
23/03:00am 8.9 8.0 6.2 83 1.3 CALM 0 0 0 0 1013.8 1009.4 0.0
23/02:30am 9.9 9.3 7.5 85 1.2 CALM 0 0 0 0 1013.9 1009.5 0.0
23/02:00am 10.5 9.9 7.2 80 1.7 CALM 0 0 0 0 1014.2 1009.8 0.0
23/01:30am 10.6 9.9 7.1 79 1.8 CALM 0 0 0 0 1014.4 1009.9 0.0
23/01:00am 11.7 11.3 8.2 79 1.8 CALM 0 0 0 0 1014.2 1009.8 0.0
23/12:30am 12.2 10.2 7.3 72 2.5 WSW 7 11 4 6 1014.4 1009.9 0.0
23/12:00am 14.1 12.1 8.5 69 3.0 WSW 9 13 5 7 1014.6 1010.2 0.0
 
Date/Time
EDT
Temp
°C
App
Temp
°C
Dew
Point
°C
Rel
Hum
%
Delta-T
°C
Wind Press
QNH
hPa
Press
MSL
hPa
Rain since
9am
mm
Dir  Spd
km/h
Gust
km/h
Spd
kts
Gust
kts
22/11:30pm 14.8 12.0 8.7 67 3.2 WSW 13 15 7 8 1014.6 1010.2 0.0
22/11:00pm 16.0 13.2 8.5 61 4.0 SW 13 15 7 8 1014.5 1010.0 0.0
22/10:30pm 18.7 15.4 8.1 50 5.7 SW 15 22 8 12 1014.1 1009.7 0.0
22/10:00pm 19.7 17.6 9.9 53 5.5 NE 11 13 6 7 1013.4 1008.9 0.0
22/09:30pm 18.1 16.7 5.3 43 6.5 WSW 2 7 1 4 1012.8 1008.4 0.0
22/09:00pm 21.6 20.7 5.9 36 8.3 CALM 0 0 0 0 1012.8 1008.4 0.0
22/08:30pm 24.0 22.9 4.9 29 10.0 CALM 0 0 0 0 1012.4 1007.9 0.0
22/08:00pm 25.9 24.7 4.4 25 11.3 CALM 0 0 0 0 1012.1 1007.6 0.0
22/07:30pm 27.0 24.9 4.1 23 12.0 W 4 9 2 5 1011.8 1007.4 0.0
22/07:00pm 26.7 22.9 3.9 23 11.9 WSW 13 15 7 8 1011.7 1007.3 0.0
22/06:30pm 26.8 21.6 3.3 22 12.2 WSW 20 26 11 14 1011.8 1007.4 0.0
22/06:00pm 28.4 23.3 4.0 21 12.9 W 20 30 11 16 1011.5 1007.0 0.0
22/05:30pm 28.5 23.6 4.1 21 12.9 WSW 19 48 10 26 1011.4 1006.9 0.0
22/05:00pm 27.6 23.0 5.8 25 11.9 NW 19 28 10 15 1011.6 1007.1 0.0
22/04:30pm 28.6 22.6 3.5 20 13.2 WSW 24 35 13 19 1011.6 1007.1 0.0
22/04:00pm 28.3 22.9 2.5 19 13.3 WSW 20 33 11 18 1011.6 1007.1 0.0
22/03:30pm 28.9 22.4 0.6 16 14.2 W 24 37 13 20 1011.7 1007.3 0.0
22/03:00pm 27.6 20.5 -1.3 15 13.9 W 26 37 14 20 1012.1 1007.6 0.0
22/02:30pm 27.4 20.6 1.0 18 13.2 W 26 43 14 23 1012.1 1007.6 0.0
22/02:00pm 29.8 22.2 0.4 15 14.8 W 30 46 16 25 1012.0 1007.5 0.0
22/01:30pm 28.9 21.9 2.2 18 13.7 W 28 59 15 32 1011.6 1007.1 0.0
22/01:00pm 27.8 22.3 4.2 22 12.5 W 22 37 12 20 1012.1 1007.6 0.0
22/12:30pm 27.6 22.0 5.2 24 12.0 WNW 24 37 13 20 1012.3 1007.8 0.0
22/12:00pm 28.8 22.5 5.6 23 12.7 WNW 28 43 15 23 1012.4 1007.9 0.0
22/11:30am 27.0 21.7 6.9 28 11.1 W 24 33 13 18 1012.5 1008.0 0.0
22/11:00am 26.8 22.9 8.7 32 10.3 WNW 19 30 10 16 1012.8 1008.4 0.0
22/10:30am 26.0 21.7 9.4 35 9.5 WNW 22 33 12 18 1012.9 1008.5 0.0
22/10:00am 25.4 21.5 8.8 35 9.4 WNW 19 32 10 17 1013.0 1008.6 0.0
22/09:30am 24.5 20.4 8.5 36 9.0 WNW 20 35 11 19 1013.2 1008.7 0.0
22/09:00am 23.4 18.5 8.3 38 8.4 WNW 24 41 13 22 1013.4 1008.9 0.0
22/08:30am 22.2 19.4 8.7 42 7.5 NW 13 30 7 16 1013.6 1009.1 0.0
22/08:00am 19.1 17.0 9.9 55 5.1 NE 11 13 6 7 1013.6 1009.1 0.0
22/07:30am 15.6 13.4 9.3 66 3.4 NNE 11 13 6 7 1013.7 1009.3 0.0
22/07:00am 12.8 11.4 8.9 77 2.1 SSW 6 9 3 5 1013.6 1009.1 0.0
22/06:30am 11.3 9.3 8.5 83 1.5 NE 9 17 5 9 1013.0 1008.6 0.0
22/06:00am 11.5 7.8 8.0 79 1.8 NE 17 19 9 10 1012.8 1008.4 0.0
22/05:30am 11.3 7.7 8.2 81 1.6 NE 17 19 9 10 1012.7 1008.3 0.0
22/05:00am 10.8 7.0 8.9 88 1.0 ENE 19 20 10 11 1012.5 1008.0 0.0
22/04:30am 10.0 6.8 9.9 99 0.1 NE 17 19 9 10 1012.4 1007.9 0.0
22/04:00am 9.2 7.5 8.4 95 0.4 NNE 7 9 4 5 1012.5 1008.0 0.0
22/03:30am 9.1 6.8 7.5 90 0.8 NNE 9 11 5 6 1012.8 1008.4 0.0
22/03:00am 10.8 9.9 10.6 99 0.1 N 6 9 3 5 1013.0 1008.6 0.0
22/02:30am 10.0 8.0 8.8 92 0.6 N 9 11 5 6 1013.4 1008.9 0.0
22/02:00am 10.6 9.3 10.0 96 0.3 NNE 7 9 4 5 1013.4 1008.9 0.0
22/01:30am 10.0 8.3 8.3 89 0.9 NNE 7 9 4 5 1013.6 1009.1 0.0
22/01:00am 10.5 9.4 8.4 87 1.1 N 4 7 2 4 1013.8 1009.4 0.0
22/12:30am 11.4 9.9 8.6 83 1.5 N 6 7 3 4 1014.1 1009.7 0.0
22/12:00am 12.7 11.6 10.1 84 1.4 N 6 7 3 4 1014.2 1009.8 0.0
 
Date/Time
EDT
Temp
°C
App
Temp
°C
Dew
Point
°C
Rel
Hum
%
Delta-T
°C
Wind Press
QNH
hPa
Press
MSL
hPa
Rain since
9am
mm
Dir  Spd
km/h
Gust
km/h
Spd
kts
Gust
kts
21/11:30pm 15.1 14.6 12.2 83 1.7 N 6 7 3 4 1014.5 1010.0 0.0
21/11:00pm 15.5 14.2 12.4 82 1.8 N 11 13 6 7 1014.7 1010.3 0.0
21/10:30pm 15.8 14.3 11.8 77 2.3 N 11 13 6 7 1014.8 1010.4 0.0
21/10:00pm 17.5 16.5 12.2 71 3.1 NE 9 17 5 9 1014.7 1010.3 0.0
21/09:30pm 18.5 15.9 12.0 66 3.8 E 17 20 9 11 1014.4 1009.9 0.0

Latest Capital City Observations: Canberra | Sydney | Melbourne | Brisbane | Adelaide | Perth | Hobart | Darwin

Other formats

Comma delimited format used in spreadsheet applications
http://www.bom.gov.au/fwo/IDN60903/IDN60903.94921.axf

JavaScript Object Notation format (JSON) in row-major order
http://www.bom.gov.au/fwo/IDN60903/IDN60903.94921.json

Data quality

Most of these data are generated automatically and are frequently updated. Quality checks on data are not normally performed. It is possible for incorrect values to appear. Refer to information at About Latest Weather Observations and please check the disclaimer before using these data.